sensor_id;sensor_type;location;lat;lon;timestamp;P1;durP1;ratioP1;P2;durP2;ratioP2
18190;SDS011;47004;51.366;12.348;2023-08-30T00:01:49;5.80;;;3.40;;
18190;SDS011;47004;51.366;12.348;2023-08-30T00:03:51;4.63;;;3.60;;
18190;SDS011;47004;51.366;12.348;2023-08-30T00:05:52;3.90;;;3.03;;
18190;SDS011;47004;51.366;12.348;2023-08-30T00:07:55;4.07;;;3.30;;
18190;SDS011;47004;51.366;12.348;2023-08-30T00:09:57;4.63;;;3.53;;
18190;SDS011;47004;51.366;12.348;2023-08-30T00:12:00;4.63;;;3.67;;
18190;SDS011;47004;51.366;12.348;2023-08-30T00:14:02;4.53;;;3.20;;
18190;SDS011;47004;51.366;12.348;2023-08-30T00:16:07;4.83;;;3.60;;
18190;SDS011;47004;51.366;12.348;2023-08-30T00:18:08;3.90;;;3.10;;
18190;SDS011;47004;51.366;12.348;2023-08-30T00:20:10;4.90;;;3.27;;
18190;SDS011;47004;51.366;12.348;2023-08-30T00:22:13;4.43;;;3.40;;
18190;SDS011;47004;51.366;12.348;2023-08-30T00:24:15;3.70;;;3.03;;
18190;SDS011;47004;51.366;12.348;2023-08-30T00:26:15;4.87;;;3.37;;
18190;SDS011;47004;51.366;12.348;2023-08-30T00:28:17;4.53;;;3.40;;
18190;SDS011;47004;51.366;12.348;2023-08-30T00:30:19;5.73;;;3.53;;
18190;SDS011;47004;51.366;12.348;2023-08-30T00:32:23;5.10;;;3.47;;
18190;SDS011;47004;51.366;12.348;2023-08-30T00:34:25;4.63;;;3.53;;
18190;SDS011;47004;51.366;12.348;2023-08-30T00:36:27;5.17;;;3.13;;
18190;SDS011;47004;51.366;12.348;2023-08-30T00:38:28;5.20;;;3.60;;
18190;SDS011;47004;51.366;12.348;2023-08-30T00:40:40;4.10;;;3.20;;
18190;SDS011;47004;51.366;12.348;2023-08-30T00:42:42;3.77;;;3.23;;
18190;SDS011;47004;51.366;12.348;2023-08-30T00:44:44;4.20;;;3.47;;
18190;SDS011;47004;51.366;12.348;2023-08-30T00:46:46;4.90;;;3.77;;
18190;SDS011;47004;51.366;12.348;2023-08-30T00:48:49;3.83;;;3.17;;
18190;SDS011;47004;51.366;12.348;2023-08-30T00:50:51;4.33;;;3.40;;
18190;SDS011;47004;51.366;12.348;2023-08-30T00:52:53;4.93;;;3.30;;
18190;SDS011;47004;51.366;12.348;2023-08-30T00:54:55;4.17;;;3.13;;
18190;SDS011;47004;51.366;12.348;2023-08-30T00:56:57;3.93;;;3.10;;
18190;SDS011;47004;51.366;12.348;2023-08-30T00:59:01;4.53;;;2.87;;
18190;SDS011;47004;51.366;12.348;2023-08-30T01:01:03;4.27;;;2.80;;
18190;SDS011;47004;51.366;12.348;2023-08-30T01:03:08;3.80;;;2.83;;
18190;SDS011;47004;51.366;12.348;2023-08-30T01:05:11;3.70;;;2.73;;
18190;SDS011;47004;51.366;12.348;2023-08-30T01:07:14;4.07;;;3.27;;
18190;SDS011;47004;51.366;12.348;2023-08-30T01:09:15;3.40;;;2.97;;
18190;SDS011;47004;51.366;12.348;2023-08-30T01:11:19;4.13;;;2.97;;
18190;SDS011;47004;51.366;12.348;2023-08-30T01:13:38;4.87;;;3.10;;
18190;SDS011;47004;51.366;12.348;2023-08-30T01:15:45;3.50;;;2.90;;
18190;SDS011;47004;51.366;12.348;2023-08-30T01:17:48;4.30;;;3.03;;
18190;SDS011;47004;51.366;12.348;2023-08-30T01:19:53;4.80;;;3.10;;
18190;SDS011;47004;51.366;12.348;2023-08-30T01:22:03;3.30;;;2.83;;
18190;SDS011;47004;51.366;12.348;2023-08-30T01:24:11;3.57;;;3.00;;
18190;SDS011;47004;51.366;12.348;2023-08-30T01:26:20;4.30;;;2.70;;
18190;SDS011;47004;51.366;12.348;2023-08-30T01:28:31;3.97;;;2.70;;
18190;SDS011;47004;51.366;12.348;2023-08-30T01:30:37;3.20;;;2.50;;
18190;SDS011;47004;51.366;12.348;2023-08-30T01:32:42;3.73;;;2.70;;
18190;SDS011;47004;51.366;12.348;2023-08-30T01:34:46;5.30;;;3.00;;
18190;SDS011;47004;51.366;12.348;2023-08-30T01:36:49;4.17;;;2.80;;
18190;SDS011;47004;51.366;12.348;2023-08-30T01:38:51;3.50;;;3.10;;
18190;SDS011;47004;51.366;12.348;2023-08-30T01:40:55;4.40;;;3.00;;
18190;SDS011;47004;51.366;12.348;2023-08-30T01:42:59;4.33;;;3.40;;
18190;SDS011;47004;51.366;12.348;2023-08-30T01:45:03;4.07;;;3.03;;
18190;SDS011;47004;51.366;12.348;2023-08-30T01:47:08;4.30;;;3.03;;
18190;SDS011;47004;51.366;12.348;2023-08-30T01:49:10;5.80;;;3.10;;
18190;SDS011;47004;51.366;12.348;2023-08-30T01:51:13;3.67;;;2.70;;
18190;SDS011;47004;51.366;12.348;2023-08-30T01:53:17;5.20;;;3.30;;
18190;SDS011;47004;51.366;12.348;2023-08-30T01:55:20;4.03;;;3.00;;
18190;SDS011;47004;51.366;12.348;2023-08-30T01:57:22;4.67;;;3.20;;
18190;SDS011;47004;51.366;12.348;2023-08-30T01:59:24;4.73;;;3.50;;
18190;SDS011;47004;51.366;12.348;2023-08-30T02:01:28;6.57;;;3.63;;
18190;SDS011;47004;51.366;12.348;2023-08-30T02:03:29;5.10;;;4.10;;
18190;SDS011;47004;51.366;12.348;2023-08-30T02:05:31;6.40;;;3.40;;
18190;SDS011;47004;51.366;12.348;2023-08-30T02:07:36;5.03;;;3.37;;
18190;SDS011;47004;51.366;12.348;2023-08-30T02:09:42;6.43;;;4.10;;
18190;SDS011;47004;51.366;12.348;2023-08-30T02:11:53;4.57;;;4.00;;
18190;SDS011;47004;51.366;12.348;2023-08-30T02:13:58;8.97;;;4.10;;
18190;SDS011;47004;51.366;12.348;2023-08-30T02:16:02;10.57;;;4.30;;
18190;SDS011;47004;51.366;12.348;2023-08-30T02:18:05;6.13;;;3.83;;
18190;SDS011;47004;51.366;12.348;2023-08-30T02:20:07;6.73;;;3.90;;
18190;SDS011;47004;51.366;12.348;2023-08-30T02:22:10;5.17;;;3.80;;
18190;SDS011;47004;51.366;12.348;2023-08-30T02:24:12;4.27;;;3.60;;
18190;SDS011;47004;51.366;12.348;2023-08-30T02:26:14;4.63;;;3.70;;
18190;SDS011;47004;51.366;12.348;2023-08-30T02:28:16;4.30;;;3.37;;
18190;SDS011;47004;51.366;12.348;2023-08-30T02:30:18;6.07;;;3.90;;
18190;SDS011;47004;51.366;12.348;2023-08-30T02:32:20;4.20;;;3.50;;
18190;SDS011;47004;51.366;12.348;2023-08-30T02:34:23;5.47;;;3.90;;
18190;SDS011;47004;51.366;12.348;2023-08-30T02:36:25;5.37;;;3.73;;
18190;SDS011;47004;51.366;12.348;2023-08-30T02:38:27;5.33;;;3.90;;
18190;SDS011;47004;51.366;12.348;2023-08-30T02:40:29;5.73;;;3.80;;
18190;SDS011;47004;51.366;12.348;2023-08-30T02:42:30;5.47;;;3.77;;
18190;SDS011;47004;51.366;12.348;2023-08-30T02:44:33;5.17;;;3.67;;
18190;SDS011;47004;51.366;12.348;2023-08-30T02:46:35;7.63;;;4.13;;
18190;SDS011;47004;51.366;12.348;2023-08-30T02:48:37;6.43;;;3.87;;
18190;SDS011;47004;51.366;12.348;2023-08-30T02:50:41;6.90;;;4.27;;
18190;SDS011;47004;51.366;12.348;2023-08-30T02:52:42;5.60;;;4.17;;
18190;SDS011;47004;51.366;12.348;2023-08-30T02:54:44;5.10;;;4.10;;
18190;SDS011;47004;51.366;12.348;2023-08-30T02:56:46;6.33;;;4.10;;
18190;SDS011;47004;51.366;12.348;2023-08-30T02:58:47;5.70;;;4.00;;
18190;SDS011;47004;51.366;12.348;2023-08-30T03:00:48;8.00;;;3.80;;
18190;SDS011;47004;51.366;12.348;2023-08-30T03:02:51;7.80;;;4.80;;
18190;SDS011;47004;51.366;12.348;2023-08-30T03:04:52;6.90;;;4.57;;
18190;SDS011;47004;51.366;12.348;2023-08-30T03:06:56;11.13;;;5.10;;
18190;SDS011;47004;51.366;12.348;2023-08-30T03:08:58;7.70;;;4.90;;
18190;SDS011;47004;51.366;12.348;2023-08-30T03:11:07;7.83;;;4.60;;
18190;SDS011;47004;51.366;12.348;2023-08-30T03:13:09;8.10;;;4.87;;
18190;SDS011;47004;51.366;12.348;2023-08-30T03:15:11;8.10;;;4.70;;
18190;SDS011;47004;51.366;12.348;2023-08-30T03:17:13;6.90;;;5.10;;
18190;SDS011;47004;51.366;12.348;2023-08-30T03:19:15;6.27;;;4.20;;
18190;SDS011;47004;51.366;12.348;2023-08-30T03:21:17;9.20;;;5.30;;
18190;SDS011;47004;51.366;12.348;2023-08-30T03:23:23;5.43;;;4.33;;
18190;SDS011;47004;51.366;12.348;2023-08-30T03:25:27;8.73;;;5.13;;
18190;SDS011;47004;51.366;12.348;2023-08-30T03:27:30;8.63;;;5.20;;
18190;SDS011;47004;51.366;12.348;2023-08-30T03:29:33;7.63;;;5.47;;
18190;SDS011;47004;51.366;12.348;2023-08-30T03:31:34;8.57;;;5.07;;
18190;SDS011;47004;51.366;12.348;2023-08-30T03:33:36;8.93;;;6.00;;
18190;SDS011;47004;51.366;12.348;2023-08-30T03:35:38;10.90;;;6.37;;
18190;SDS011;47004;51.366;12.348;2023-08-30T03:37:40;13.27;;;6.47;;
18190;SDS011;47004;51.366;12.348;2023-08-30T03:39:43;9.77;;;5.67;;
18190;SDS011;47004;51.366;12.348;2023-08-30T03:41:45;6.87;;;5.00;;
18190;SDS011;47004;51.366;12.348;2023-08-30T03:43:46;5.97;;;4.90;;
18190;SDS011;47004;51.366;12.348;2023-08-30T03:45:48;7.40;;;4.90;;
18190;SDS011;47004;51.366;12.348;2023-08-30T03:47:50;9.70;;;5.47;;
18190;SDS011;47004;51.366;12.348;2023-08-30T03:49:52;8.03;;;5.83;;
18190;SDS011;47004;51.366;12.348;2023-08-30T03:51:54;9.83;;;5.60;;
18190;SDS011;47004;51.366;12.348;2023-08-30T03:53:56;7.33;;;5.07;;
18190;SDS011;47004;51.366;12.348;2023-08-30T03:55:59;9.53;;;5.87;;
18190;SDS011;47004;51.366;12.348;2023-08-30T03:58:01;8.30;;;6.50;;
18190;SDS011;47004;51.366;12.348;2023-08-30T04:00:03;9.43;;;5.83;;
18190;SDS011;47004;51.366;12.348;2023-08-30T04:02:06;9.17;;;6.10;;
18190;SDS011;47004;51.366;12.348;2023-08-30T04:04:07;9.73;;;6.20;;
18190;SDS011;47004;51.366;12.348;2023-08-30T04:06:09;7.90;;;5.47;;
18190;SDS011;47004;51.366;12.348;2023-08-30T04:08:11;8.87;;;6.23;;
18190;SDS011;47004;51.366;12.348;2023-08-30T04:10:13;7.23;;;5.77;;
18190;SDS011;47004;51.366;12.348;2023-08-30T04:12:16;8.33;;;5.90;;
18190;SDS011;47004;51.366;12.348;2023-08-30T04:14:18;7.50;;;5.57;;
18190;SDS011;47004;51.366;12.348;2023-08-30T04:16:20;8.27;;;5.93;;
18190;SDS011;47004;51.366;12.348;2023-08-30T04:18:22;10.00;;;6.00;;
18190;SDS011;47004;51.366;12.348;2023-08-30T04:20:24;11.10;;;6.20;;
18190;SDS011;47004;51.366;12.348;2023-08-30T04:22:26;10.70;;;6.27;;
18190;SDS011;47004;51.366;12.348;2023-08-30T04:24:28;11.00;;;5.90;;
18190;SDS011;47004;51.366;12.348;2023-08-30T04:26:30;8.50;;;5.93;;
18190;SDS011;47004;51.366;12.348;2023-08-30T04:28:33;12.57;;;7.10;;
18190;SDS011;47004;51.366;12.348;2023-08-30T04:30:35;9.20;;;6.47;;
18190;SDS011;47004;51.366;12.348;2023-08-30T04:32:37;8.60;;;6.10;;
18190;SDS011;47004;51.366;12.348;2023-08-30T04:34:40;8.40;;;6.03;;
18190;SDS011;47004;51.366;12.348;2023-08-30T04:36:42;8.47;;;6.40;;
18190;SDS011;47004;51.366;12.348;2023-08-30T04:38:43;10.93;;;6.93;;
18190;SDS011;47004;51.366;12.348;2023-08-30T04:40:45;6.93;;;5.70;;
18190;SDS011;47004;51.366;12.348;2023-08-30T04:42:47;8.93;;;5.87;;
18190;SDS011;47004;51.366;12.348;2023-08-30T04:44:50;7.37;;;5.73;;
18190;SDS011;47004;51.366;12.348;2023-08-30T04:46:54;7.67;;;5.87;;
18190;SDS011;47004;51.366;12.348;2023-08-30T04:48:56;8.43;;;5.63;;
18190;SDS011;47004;51.366;12.348;2023-08-30T04:50:59;10.40;;;5.73;;
18190;SDS011;47004;51.366;12.348;2023-08-30T04:53:03;8.00;;;5.70;;
18190;SDS011;47004;51.366;12.348;2023-08-30T04:55:05;8.37;;;5.80;;
18190;SDS011;47004;51.366;12.348;2023-08-30T04:57:08;9.10;;;6.10;;
18190;SDS011;47004;51.366;12.348;2023-08-30T04:59:14;10.87;;;5.90;;
18190;SDS011;47004;51.366;12.348;2023-08-30T05:01:17;19.27;;;6.73;;
18190;SDS011;47004;51.366;12.348;2023-08-30T05:03:19;9.50;;;6.33;;
18190;SDS011;47004;51.366;12.348;2023-08-30T05:05:20;9.00;;;6.13;;
18190;SDS011;47004;51.366;12.348;2023-08-30T05:07:22;8.60;;;5.57;;
18190;SDS011;47004;51.366;12.348;2023-08-30T05:09:24;8.80;;;5.83;;
18190;SDS011;47004;51.366;12.348;2023-08-30T05:11:26;6.97;;;5.37;;
18190;SDS011;47004;51.366;12.348;2023-08-30T05:13:28;8.53;;;6.30;;
18190;SDS011;47004;51.366;12.348;2023-08-30T05:15:30;7.30;;;5.70;;
18190;SDS011;47004;51.366;12.348;2023-08-30T05:17:33;7.97;;;6.20;;
18190;SDS011;47004;51.366;12.348;2023-08-30T05:19:35;8.23;;;6.10;;
18190;SDS011;47004;51.366;12.348;2023-08-30T05:21:37;7.67;;;6.23;;
18190;SDS011;47004;51.366;12.348;2023-08-30T05:23:39;10.70;;;5.73;;
18190;SDS011;47004;51.366;12.348;2023-08-30T05:25:42;10.27;;;5.80;;
18190;SDS011;47004;51.366;12.348;2023-08-30T05:27:44;7.73;;;5.57;;
18190;SDS011;47004;51.366;12.348;2023-08-30T05:29:45;8.57;;;5.60;;
18190;SDS011;47004;51.366;12.348;2023-08-30T05:31:47;8.17;;;5.53;;
18190;SDS011;47004;51.366;12.348;2023-08-30T05:33:51;6.97;;;5.40;;
18190;SDS011;47004;51.366;12.348;2023-08-30T05:35:53;6.90;;;5.63;;
18190;SDS011;47004;51.366;12.348;2023-08-30T05:37:54;7.27;;;5.20;;
18190;SDS011;47004;51.366;12.348;2023-08-30T05:39:56;8.23;;;5.07;;
18190;SDS011;47004;51.366;12.348;2023-08-30T05:41:58;6.93;;;5.47;;
18190;SDS011;47004;51.366;12.348;2023-08-30T05:44:00;8.30;;;5.80;;
18190;SDS011;47004;51.366;12.348;2023-08-30T05:46:02;6.80;;;5.67;;
18190;SDS011;47004;51.366;12.348;2023-08-30T05:48:05;8.80;;;5.57;;
18190;SDS011;47004;51.366;12.348;2023-08-30T05:50:09;13.27;;;6.37;;
18190;SDS011;47004;51.366;12.348;2023-08-30T05:52:11;6.80;;;5.20;;
18190;SDS011;47004;51.366;12.348;2023-08-30T05:54:12;11.70;;;6.50;;
18190;SDS011;47004;51.366;12.348;2023-08-30T05:56:14;8.90;;;6.20;;
18190;SDS011;47004;51.366;12.348;2023-08-30T05:58:15;9.43;;;6.87;;
18190;SDS011;47004;51.366;12.348;2023-08-30T06:00:18;9.83;;;6.17;;
18190;SDS011;47004;51.366;12.348;2023-08-30T06:02:21;7.93;;;6.03;;
18190;SDS011;47004;51.366;12.348;2023-08-30T06:04:23;8.00;;;5.53;;
18190;SDS011;47004;51.366;12.348;2023-08-30T06:06:26;8.77;;;6.17;;
18190;SDS011;47004;51.366;12.348;2023-08-30T06:08:28;8.37;;;6.30;;
18190;SDS011;47004;51.366;12.348;2023-08-30T06:10:30;8.23;;;6.87;;
18190;SDS011;47004;51.366;12.348;2023-08-30T06:12:34;9.80;;;6.93;;
18190;SDS011;47004;51.366;12.348;2023-08-30T06:14:36;10.50;;;7.10;;
18190;SDS011;47004;51.366;12.348;2023-08-30T06:16:37;10.27;;;7.70;;
18190;SDS011;47004;51.366;12.348;2023-08-30T06:18:44;12.53;;;7.73;;
18190;SDS011;47004;51.366;12.348;2023-08-30T06:20:45;12.40;;;8.20;;
18190;SDS011;47004;51.366;12.348;2023-08-30T06:22:49;10.63;;;7.53;;
18190;SDS011;47004;51.366;12.348;2023-08-30T06:24:51;13.27;;;8.60;;
18190;SDS011;47004;51.366;12.348;2023-08-30T06:26:52;14.10;;;7.60;;
18190;SDS011;47004;51.366;12.348;2023-08-30T06:28:54;12.07;;;8.73;;
18190;SDS011;47004;51.366;12.348;2023-08-30T06:30:56;16.17;;;9.07;;
18190;SDS011;47004;51.366;12.348;2023-08-30T06:32:58;14.90;;;9.73;;
18190;SDS011;47004;51.366;12.348;2023-08-30T06:35:00;11.33;;;7.70;;
18190;SDS011;47004;51.366;12.348;2023-08-30T06:37:02;14.07;;;8.40;;
18190;SDS011;47004;51.366;12.348;2023-08-30T06:39:06;11.40;;;8.63;;
18190;SDS011;47004;51.366;12.348;2023-08-30T06:41:08;15.87;;;8.97;;
18190;SDS011;47004;51.366;12.348;2023-08-30T06:43:10;14.07;;;9.17;;
18190;SDS011;47004;51.366;12.348;2023-08-30T06:45:12;16.53;;;9.83;;
18190;SDS011;47004;51.366;12.348;2023-08-30T06:47:14;12.87;;;8.83;;
18190;SDS011;47004;51.366;12.348;2023-08-30T06:49:16;13.17;;;8.53;;
18190;SDS011;47004;51.366;12.348;2023-08-30T06:51:17;12.03;;;8.93;;
18190;SDS011;47004;51.366;12.348;2023-08-30T06:53:19;12.00;;;8.63;;
18190;SDS011;47004;51.366;12.348;2023-08-30T06:55:23;14.93;;;8.97;;
18190;SDS011;47004;51.366;12.348;2023-08-30T06:57:25;15.57;;;9.70;;
18190;SDS011;47004;51.366;12.348;2023-08-30T06:59:27;12.00;;;8.93;;
18190;SDS011;47004;51.366;12.348;2023-08-30T07:01:29;12.67;;;9.27;;
18190;SDS011;47004;51.366;12.348;2023-08-30T07:03:31;11.73;;;8.80;;
18190;SDS011;47004;51.366;12.348;2023-08-30T07:05:33;13.60;;;9.23;;
18190;SDS011;47004;51.366;12.348;2023-08-30T07:07:35;10.97;;;8.10;;
18190;SDS011;47004;51.366;12.348;2023-08-30T07:09:37;13.97;;;8.57;;
18190;SDS011;47004;51.366;12.348;2023-08-30T07:11:41;9.87;;;7.80;;
18190;SDS011;47004;51.366;12.348;2023-08-30T07:13:44;11.37;;;8.20;;
18190;SDS011;47004;51.366;12.348;2023-08-30T07:15:46;9.60;;;7.37;;
18190;SDS011;47004;51.366;12.348;2023-08-30T07:17:48;10.77;;;7.90;;
18190;SDS011;47004;51.366;12.348;2023-08-30T07:19:50;11.03;;;8.07;;
18190;SDS011;47004;51.366;12.348;2023-08-30T07:21:52;12.57;;;8.03;;
18190;SDS011;47004;51.366;12.348;2023-08-30T07:23:54;9.60;;;7.93;;
18190;SDS011;47004;51.366;12.348;2023-08-30T07:25:55;9.70;;;7.57;;
18190;SDS011;47004;51.366;12.348;2023-08-30T07:27:59;11.40;;;8.17;;
18190;SDS011;47004;51.366;12.348;2023-08-30T07:30:01;8.37;;;6.77;;
18190;SDS011;47004;51.366;12.348;2023-08-30T07:32:04;11.40;;;7.43;;
18190;SDS011;47004;51.366;12.348;2023-08-30T07:34:05;9.67;;;6.87;;
18190;SDS011;47004;51.366;12.348;2023-08-30T07:36:08;9.13;;;6.87;;
18190;SDS011;47004;51.366;12.348;2023-08-30T07:38:10;9.33;;;6.67;;
18190;SDS011;47004;51.366;12.348;2023-08-30T07:40:12;8.73;;;7.10;;
18190;SDS011;47004;51.366;12.348;2023-08-30T07:42:14;12.43;;;7.03;;
18190;SDS011;47004;51.366;12.348;2023-08-30T07:44:17;8.23;;;6.60;;
18190;SDS011;47004;51.366;12.348;2023-08-30T07:46:20;9.97;;;7.07;;
18190;SDS011;47004;51.366;12.348;2023-08-30T07:48:22;8.57;;;6.90;;
18190;SDS011;47004;51.366;12.348;2023-08-30T07:50:24;11.63;;;6.73;;
18190;SDS011;47004;51.366;12.348;2023-08-30T07:52:26;8.80;;;6.43;;
18190;SDS011;47004;51.366;12.348;2023-08-30T07:54:28;9.77;;;6.93;;
18190;SDS011;47004;51.366;12.348;2023-08-30T07:56:30;9.17;;;6.47;;
18190;SDS011;47004;51.366;12.348;2023-08-30T07:58:31;9.40;;;5.80;;
18190;SDS011;47004;51.366;12.348;2023-08-30T08:00:35;12.30;;;7.83;;
18190;SDS011;47004;51.366;12.348;2023-08-30T08:02:37;9.33;;;6.43;;
18190;SDS011;47004;51.366;12.348;2023-08-30T08:04:39;11.70;;;5.53;;
18190;SDS011;47004;51.366;12.348;2023-08-30T08:06:41;6.67;;;5.17;;
18190;SDS011;47004;51.366;12.348;2023-08-30T08:08:43;8.00;;;4.70;;
18190;SDS011;47004;51.366;12.348;2023-08-30T08:10:45;6.53;;;4.47;;
18190;SDS011;47004;51.366;12.348;2023-08-30T08:12:47;7.90;;;4.40;;
18190;SDS011;47004;51.366;12.348;2023-08-30T08:14:49;6.47;;;4.90;;
18190;SDS011;47004;51.366;12.348;2023-08-30T08:16:52;9.37;;;4.57;;
18190;SDS011;47004;51.366;12.348;2023-08-30T08:18:54;7.13;;;4.93;;
18190;SDS011;47004;51.366;12.348;2023-08-30T08:20:59;8.20;;;4.00;;
18190;SDS011;47004;51.366;12.348;2023-08-30T08:23:01;5.47;;;4.30;;
18190;SDS011;47004;51.366;12.348;2023-08-30T08:25:03;8.13;;;5.60;;
18190;SDS011;47004;51.366;12.348;2023-08-30T08:27:05;6.70;;;4.67;;
18190;SDS011;47004;51.366;12.348;2023-08-30T08:29:07;4.93;;;4.07;;
18190;SDS011;47004;51.366;12.348;2023-08-30T08:31:09;5.23;;;4.30;;
18190;SDS011;47004;51.366;12.348;2023-08-30T08:33:13;4.67;;;3.77;;
18190;SDS011;47004;51.366;12.348;2023-08-30T08:35:15;5.17;;;3.57;;
18190;SDS011;47004;51.366;12.348;2023-08-30T08:37:17;6.27;;;3.10;;
18190;SDS011;47004;51.366;12.348;2023-08-30T08:39:19;6.60;;;3.93;;
18190;SDS011;47004;51.366;12.348;2023-08-30T08:41:21;5.57;;;3.80;;
18190;SDS011;47004;51.366;12.348;2023-08-30T08:43:31;4.97;;;3.20;;
18190;SDS011;47004;51.366;12.348;2023-08-30T08:45:34;6.20;;;3.27;;
18190;SDS011;47004;51.366;12.348;2023-08-30T08:47:36;4.53;;;3.30;;
18190;SDS011;47004;51.366;12.348;2023-08-30T08:49:40;7.60;;;4.03;;
18190;SDS011;47004;51.366;12.348;2023-08-30T08:51:43;5.33;;;3.43;;
18190;SDS011;47004;51.366;12.348;2023-08-30T08:53:45;7.63;;;4.13;;
18190;SDS011;47004;51.366;12.348;2023-08-30T08:55:47;7.03;;;2.70;;
18190;SDS011;47004;51.366;12.348;2023-08-30T08:57:50;5.30;;;2.70;;
18190;SDS011;47004;51.366;12.348;2023-08-30T08:59:54;4.60;;;2.60;;
18190;SDS011;47004;51.366;12.348;2023-08-30T09:01:56;4.03;;;2.77;;
18190;SDS011;47004;51.366;12.348;2023-08-30T09:04:00;5.07;;;2.20;;
18190;SDS011;47004;51.366;12.348;2023-08-30T09:06:06;3.43;;;2.10;;
18190;SDS011;47004;51.366;12.348;2023-08-30T09:08:09;4.00;;;2.20;;
18190;SDS011;47004;51.366;12.348;2023-08-30T09:10:13;4.07;;;2.10;;
18190;SDS011;47004;51.366;12.348;2023-08-30T09:12:15;3.47;;;1.77;;
18190;SDS011;47004;51.366;12.348;2023-08-30T09:14:17;2.97;;;1.90;;
18190;SDS011;47004;51.366;12.348;2023-08-30T09:16:18;3.63;;;2.03;;
18190;SDS011;47004;51.366;12.348;2023-08-30T09:18:20;3.53;;;2.07;;
18190;SDS011;47004;51.366;12.348;2023-08-30T09:20:27;3.77;;;2.00;;
18190;SDS011;47004;51.366;12.348;2023-08-30T09:22:36;3.77;;;2.07;;
18190;SDS011;47004;51.366;12.348;2023-08-30T09:24:39;1.93;;;1.50;;
18190;SDS011;47004;51.366;12.348;2023-08-30T09:26:46;4.03;;;1.60;;
18190;SDS011;47004;51.366;12.348;2023-08-30T09:28:49;5.13;;;1.77;;
18190;SDS011;47004;51.366;12.348;2023-08-30T09:30:51;3.07;;;1.80;;
18190;SDS011;47004;51.366;12.348;2023-08-30T09:32:53;2.53;;;1.80;;
18190;SDS011;47004;51.366;12.348;2023-08-30T09:34:55;6.23;;;2.37;;
18190;SDS011;47004;51.366;12.348;2023-08-30T09:36:56;3.53;;;2.20;;
18190;SDS011;47004;51.366;12.348;2023-08-30T09:39:04;5.27;;;2.40;;
18190;SDS011;47004;51.366;12.348;2023-08-30T09:41:07;3.93;;;2.63;;
18190;SDS011;47004;51.366;12.348;2023-08-30T09:43:09;4.60;;;2.00;;
18190;SDS011;47004;51.366;12.348;2023-08-30T09:45:17;3.40;;;2.20;;
18190;SDS011;47004;51.366;12.348;2023-08-30T09:47:20;3.43;;;2.03;;
18190;SDS011;47004;51.366;12.348;2023-08-30T09:49:25;4.80;;;1.93;;
18190;SDS011;47004;51.366;12.348;2023-08-30T09:51:27;3.50;;;2.00;;
18190;SDS011;47004;51.366;12.348;2023-08-30T09:53:30;2.67;;;2.10;;
18190;SDS011;47004;51.366;12.348;2023-08-30T09:55:37;2.90;;;2.03;;
18190;SDS011;47004;51.366;12.348;2023-08-30T09:57:40;2.60;;;2.40;;
18190;SDS011;47004;51.366;12.348;2023-08-30T09:59:44;5.10;;;2.67;;
18190;SDS011;47004;51.366;12.348;2023-08-30T10:01:47;3.53;;;1.60;;
18190;SDS011;47004;51.366;12.348;2023-08-30T10:03:49;3.30;;;1.80;;
18190;SDS011;47004;51.366;12.348;2023-08-30T10:05:52;4.60;;;2.10;;
18190;SDS011;47004;51.366;12.348;2023-08-30T10:07:54;3.83;;;2.23;;
18190;SDS011;47004;51.366;12.348;2023-08-30T10:09:57;10.10;;;2.30;;
18190;SDS011;47004;51.366;12.348;2023-08-30T10:12:02;3.40;;;1.90;;
18190;SDS011;47004;51.366;12.348;2023-08-30T10:14:06;3.13;;;2.03;;
18190;SDS011;47004;51.366;12.348;2023-08-30T10:16:09;5.67;;;2.13;;
18190;SDS011;47004;51.366;12.348;2023-08-30T10:18:17;2.63;;;1.90;;
18190;SDS011;47004;51.366;12.348;2023-08-30T10:20:23;3.30;;;1.80;;
18190;SDS011;47004;51.366;12.348;2023-08-30T10:22:25;2.40;;;1.87;;
18190;SDS011;47004;51.366;12.348;2023-08-30T10:24:27;2.53;;;1.60;;
18190;SDS011;47004;51.366;12.348;2023-08-30T10:26:31;2.37;;;1.80;;
18190;SDS011;47004;51.366;12.348;2023-08-30T10:28:35;1.97;;;1.70;;
18190;SDS011;47004;51.366;12.348;2023-08-30T10:30:39;3.17;;;1.93;;
18190;SDS011;47004;51.366;12.348;2023-08-30T10:32:42;2.30;;;1.63;;
18190;SDS011;47004;51.366;12.348;2023-08-30T10:34:46;2.17;;;1.77;;
18190;SDS011;47004;51.366;12.348;2023-08-30T10:36:56;3.53;;;2.20;;
18190;SDS011;47004;51.366;12.348;2023-08-30T10:38:58;2.57;;;1.80;;
18190;SDS011;47004;51.366;12.348;2023-08-30T10:41:05;3.00;;;1.70;;
18190;SDS011;47004;51.366;12.348;2023-08-30T10:43:08;4.37;;;2.33;;
18190;SDS011;47004;51.366;12.348;2023-08-30T10:45:14;2.33;;;2.10;;
18190;SDS011;47004;51.366;12.348;2023-08-30T10:47:26;5.57;;;2.33;;
18190;SDS011;47004;51.366;12.348;2023-08-30T10:49:29;2.27;;;1.77;;
18190;SDS011;47004;51.366;12.348;2023-08-30T10:51:40;4.13;;;1.90;;
18190;SDS011;47004;51.366;12.348;2023-08-30T10:53:47;3.00;;;1.40;;
18190;SDS011;47004;51.366;12.348;2023-08-30T10:56:09;2.50;;;1.53;;
18190;SDS011;47004;51.366;12.348;2023-08-30T10:58:13;2.93;;;2.03;;
18190;SDS011;47004;51.366;12.348;2023-08-30T11:00:20;2.47;;;2.00;;
18190;SDS011;47004;51.366;12.348;2023-08-30T11:02:22;2.03;;;1.50;;
18190;SDS011;47004;51.366;12.348;2023-08-30T11:04:24;1.87;;;1.70;;
18190;SDS011;47004;51.366;12.348;2023-08-30T11:06:26;2.63;;;2.00;;
18190;SDS011;47004;51.366;12.348;2023-08-30T11:08:27;2.90;;;1.97;;
18190;SDS011;47004;51.366;12.348;2023-08-30T11:10:30;2.83;;;1.63;;
18190;SDS011;47004;51.366;12.348;2023-08-30T11:12:31;1.73;;;1.50;;
18190;SDS011;47004;51.366;12.348;2023-08-30T11:14:33;2.23;;;1.80;;
18190;SDS011;47004;51.366;12.348;2023-08-30T11:16:37;1.73;;;1.50;;
18190;SDS011;47004;51.366;12.348;2023-08-30T11:18:39;2.33;;;1.60;;
18190;SDS011;47004;51.366;12.348;2023-08-30T11:20:42;2.30;;;1.40;;
18190;SDS011;47004;51.366;12.348;2023-08-30T11:22:45;3.00;;;1.40;;
18190;SDS011;47004;51.366;12.348;2023-08-30T11:24:48;1.43;;;1.20;;
18190;SDS011;47004;51.366;12.348;2023-08-30T11:26:52;3.83;;;1.37;;
18190;SDS011;47004;51.366;12.348;2023-08-30T11:28:54;2.53;;;1.67;;
18190;SDS011;47004;51.366;12.348;2023-08-30T11:30:56;1.73;;;1.30;;
18190;SDS011;47004;51.366;12.348;2023-08-30T11:33:00;1.73;;;1.20;;
18190;SDS011;47004;51.366;12.348;2023-08-30T11:35:04;2.53;;;0.90;;
18190;SDS011;47004;51.366;12.348;2023-08-30T11:37:06;2.13;;;1.23;;
18190;SDS011;47004;51.366;12.348;2023-08-30T11:39:09;2.93;;;1.00;;
18190;SDS011;47004;51.366;12.348;2023-08-30T11:41:12;1.40;;;1.00;;
18190;SDS011;47004;51.366;12.348;2023-08-30T11:43:14;1.50;;;1.10;;
18190;SDS011;47004;51.366;12.348;2023-08-30T11:45:17;2.73;;;1.30;;
18190;SDS011;47004;51.366;12.348;2023-08-30T11:47:19;2.20;;;1.10;;
18190;SDS011;47004;51.366;12.348;2023-08-30T11:49:26;2.50;;;1.13;;
18190;SDS011;47004;51.366;12.348;2023-08-30T11:51:28;1.77;;;1.20;;
18190;SDS011;47004;51.366;12.348;2023-08-30T11:53:31;1.87;;;1.00;;
18190;SDS011;47004;51.366;12.348;2023-08-30T11:55:33;2.90;;;1.23;;
18190;SDS011;47004;51.366;12.348;2023-08-30T11:57:35;1.90;;;1.17;;
18190;SDS011;47004;51.366;12.348;2023-08-30T11:59:37;3.13;;;1.40;;
18190;SDS011;47004;51.366;12.348;2023-08-30T12:01:38;2.33;;;1.20;;
18190;SDS011;47004;51.366;12.348;2023-08-30T12:03:40;3.10;;;1.40;;
18190;SDS011;47004;51.366;12.348;2023-08-30T12:05:47;2.47;;;1.10;;
18190;SDS011;47004;51.366;12.348;2023-08-30T12:07:50;2.17;;;1.20;;
18190;SDS011;47004;51.366;12.348;2023-08-30T12:09:52;1.27;;;1.10;;